Orofino, ID

1:43 PM PST on December 22, 2014 (GMT -0800)
Mullan Pass | Change Station
CLOSE
Current Station
Airport
Location: Mullan Pass,
Elevation: 6073 ft
Nearby Weather Stations

Elev 6073 ft 47.45 °N, 115.67 °W | Updated 22 minutes ago

Clear
Clear
24 °F
Feels Like 15 °F
N
8
Wind Variable Wind from NW

Today
High -- | Low -- °F
--% Chance of Precip.
Yesterday
High -- | Low -- °F
Precip. -- in
7:25 AM 4:00 PM
New Moon, 1% visible
Pressure 30.05 in
Visibility 10.0 miles
Clouds Mostly Cloudy 1000 ft
Overcast 1500 ft
Windchill 15 °F
Dew Point 22 °F
Humidity 91%
Rainfall 0.01 in
Snow Depth Not available.
UV 0 out of 12
Pollen .50 out of 12
Air Quality Not available.
Flu Activity Not available.
SPECI KMLP 222121Z AUTO 31007KT 270V360 10SM BKN010 OVC015 M04/M06 A3005 RMK AO2 CIG 006V012 T10441056

More Conditions Fewer Conditions

Pressure 30.05 in
Visibility 10.0 miles
Clouds Mostly Cloudy 1000 ft
Overcast 1500 ft
Windchill 15 °F
Dew Point 22 °F
Humidity 91%
Rainfall 0.01 in
Snow Depth Not available.
UV 0 out of 12
Pollen .50 out of 12
Air Quality Not available.
Flu Activity Not available.
SPECI KMLP 222121Z AUTO 31007KT 270V360 10SM BKN010 OVC015 M04/M06 A3005 RMK AO2 CIG 006V012 T10441056

More Conditions Fewer Conditions

10-Day Weather Forecast

Almanac

Astronomy

Dec. 22, 2014 Rise Set
Actual Time
Civil Twilight
Nautical Twilight
Astronomical Twilight
Moon
Length of Visible Light
Length of Day
Tomorrow will be .
, % of the Moon is Illuminated

Today's Extremes

State Highs State Lows

Community

WunderPhotos

Upload Photos

1,779,688 photos uploaded!

WunderBlogs® & News

Nearby

Air Quality

  Air Quality AQ Index Pollutant
Not available.

Snow Depth

Station Depth Elevation

Earthquake Activity

City Distance Mag. Time & Date
Minimum magnitude displayed is 2.5.

Coastal Water Temperatures

Place Temperature

Nearby Weather Stations